createdAt,value
2022-12-08T00:01:12.845Z,1104.2
2022-12-08T00:02:56.335Z,1101
2022-12-08T00:04:39.705Z,1100.8
2022-12-08T00:06:23.359Z,1100.1
2022-12-08T00:08:06.727Z,1097
2022-12-08T00:09:50.151Z,1092.8
2022-12-08T00:11:33.585Z,1090.7
2022-12-08T00:13:16.975Z,1087.4
2022-12-08T00:15:00.312Z,1086.5
2022-12-08T00:16:43.715Z,1088.2
2022-12-08T00:18:27.121Z,1087.5
2022-12-08T00:21:53.588Z,1087.3
2022-12-08T00:23:36.986Z,1082.1
2022-12-08T00:25:20.529Z,1080.5
2022-12-08T00:27:03.891Z,1078
2022-12-08T00:28:47.168Z,1073.7
2022-12-08T00:30:30.560Z,1070.8
2022-12-08T00:32:13.991Z,1069.7
2022-12-08T00:33:57.501Z,1067.1
2022-12-08T00:35:41.079Z,1060.9
2022-12-08T00:37:24.547Z,1058.1
2022-12-08T00:39:07.956Z,1056.4
2022-12-08T00:40:51.346Z,1055.1
2022-12-08T00:42:34.721Z,1058.1
2022-12-08T00:44:18.040Z,1059.5
2022-12-08T00:46:01.435Z,1060.6
2022-12-08T00:47:44.859Z,1061.3
2022-12-08T00:51:11.358Z,1059.2
2022-12-08T00:52:54.814Z,1055.7
2022-12-08T00:54:38.116Z,1052.4
2022-12-08T00:56:21.587Z,1053.5
2022-12-08T00:58:04.902Z,1055
2022-12-08T00:59:48.292Z,1056.4
2022-12-08T01:01:31.711Z,1055.2
2022-12-08T01:03:15.088Z,1055.4
2022-12-08T01:06:41.540Z,1057.9
2022-12-08T01:08:24.942Z,1060.8
2022-12-08T01:10:08.363Z,1058.8
2022-12-08T01:11:51.822Z,1057.1
2022-12-08T01:13:35.199Z,1056.8
2022-12-08T01:15:18.554Z,1054.5
2022-12-08T01:17:01.991Z,1055.1
2022-12-08T01:22:11.168Z,1049.7
2022-12-08T01:23:54.558Z,1048.7
2022-12-08T01:25:37.962Z,1050.3
2022-12-08T01:27:21.410Z,1050.8
2022-12-08T01:29:04.759Z,1049.2
2022-12-08T01:30:48.142Z,1046.7
2022-12-08T01:32:31.537Z,1043.7
2022-12-08T01:34:14.947Z,1043.5
2022-12-08T01:35:58.655Z,1044.1
2022-12-08T01:37:42.028Z,1047.2
2022-12-08T01:39:25.439Z,1049.8
2022-12-08T01:41:08.834Z,1050.4
2022-12-08T01:42:52.232Z,1051.5
2022-12-08T01:44:35.629Z,1050.4
2022-12-08T01:46:19.016Z,1050.1
2022-12-08T01:48:02.421Z,1052.2
2022-12-08T01:51:28.893Z,1049.4
2022-12-08T01:53:12.281Z,1044.8
2022-12-08T01:54:55.674Z,1040.1
2022-12-08T01:56:39.149Z,1040.4
2022-12-08T01:58:22.469Z,1041.7
2022-12-08T02:00:05.856Z,1039.7
2022-12-08T02:01:49.270Z,1039.1
2022-12-08T02:06:58.508Z,1034.7
2022-12-08T02:08:41.899Z,1034.7
2022-12-08T02:10:25.385Z,1037.6
2022-12-08T02:12:08.699Z,1037.3
2022-12-08T02:13:52.162Z,1034.5
2022-12-08T02:15:35.497Z,1031.3
2022-12-08T02:17:18.956Z,1032.8
2022-12-08T02:22:28.149Z,1029.2
2022-12-08T02:24:11.534Z,1028.1
2022-12-08T02:25:54.919Z,1027.8
2022-12-08T02:27:38.346Z,1026.3
2022-12-08T02:29:21.714Z,1024.7
2022-12-08T02:31:05.161Z,1025.1
2022-12-08T02:32:48.520Z,1024.5
2022-12-08T02:34:32.066Z,1027.3
2022-12-08T02:37:58.403Z,1028.7
2022-12-08T02:39:41.765Z,1028.4
2022-12-08T02:41:25.222Z,1027.3
2022-12-08T02:43:08.567Z,1022.7
2022-12-08T02:44:51.983Z,1023.5
2022-12-08T02:46:35.335Z,1020.6
2022-12-08T02:48:18.816Z,1016.4
2022-12-08T02:51:45.844Z,1016.1
2022-12-08T02:53:29.233Z,1014.8
2022-12-08T02:55:12.650Z,1014
2022-12-08T02:56:56.039Z,1010.6
2022-12-08T02:58:39.423Z,1009.2
2022-12-08T03:00:22.824Z,1009.2
2022-12-08T03:02:06.226Z,1008.4
2022-12-08T03:03:49.628Z,1007.8
2022-12-08T03:07:16.091Z,1002.6
2022-12-08T03:08:59.481Z,997.6
2022-12-08T03:10:42.948Z,997.4
2022-12-08T03:12:26.297Z,995.2
2022-12-08T03:14:09.678Z,992.5
2022-12-08T03:15:53.081Z,993.7
2022-12-08T03:17:36.463Z,993.3
2022-12-08T03:19:19.980Z,996.5
2022-12-08T03:24:29.111Z,990.9
2022-12-08T03:26:12.514Z,992.2
2022-12-08T03:27:55.885Z,989.3
2022-12-08T03:31:22.738Z,987
2022-12-08T03:33:06.132Z,986.8
2022-12-08T03:34:49.474Z,986.3
2022-12-08T03:36:32.885Z,987.8
2022-12-08T03:39:59.371Z,988.5
2022-12-08T03:41:42.750Z,988.1
2022-12-08T03:43:26.141Z,985.3
2022-12-08T03:45:09.591Z,983.5
2022-12-08T03:46:52.927Z,982.8
2022-12-08T03:48:36.320Z,981.2
2022-12-08T03:50:19.742Z,981.6
2022-12-08T03:52:03.123Z,984.2
2022-12-08T03:57:12.365Z,980.2
2022-12-08T03:58:55.777Z,980.4
2022-12-08T04:00:39.151Z,979.3
2022-12-08T04:02:22.537Z,975.6
2022-12-08T04:04:05.934Z,974.2
2022-12-08T04:05:49.348Z,972.5
2022-12-08T04:07:32.790Z,973.3
2022-12-08T04:09:16.180Z,976.6
2022-12-08T04:14:25.381Z,975.6
2022-12-08T04:16:08.778Z,974.1
2022-12-08T04:17:52.185Z,974.4
2022-12-08T04:19:35.558Z,976.1
2022-12-08T04:21:18.964Z,973.3
2022-12-08T04:23:02.383Z,971.8
2022-12-08T04:24:45.763Z,968.6
2022-12-08T04:26:29.153Z,967.2
2022-12-08T04:29:55.604Z,965.6
2022-12-08T04:31:39.124Z,968.4
2022-12-08T04:33:22.483Z,970.8
2022-12-08T04:35:05.811Z,972.3
2022-12-08T04:36:49.250Z,970.7
2022-12-08T04:38:32.663Z,969.7
2022-12-08T04:40:16.010Z,967.3
2022-12-08T04:41:59.387Z,964.7
2022-12-08T04:47:08.639Z,959.6
2022-12-08T04:48:52.068Z,958.8
2022-12-08T04:50:35.448Z,957.4
2022-12-08T04:52:18.944Z,956.5
2022-12-08T04:54:02.276Z,956.7
2022-12-08T04:55:45.632Z,955.1
2022-12-08T04:57:29.004Z,953.8
2022-12-08T04:59:12.456Z,949.7
2022-12-08T05:04:21.648Z,954.9
2022-12-08T05:06:05.037Z,954.8
2022-12-08T05:07:48.441Z,951.2
2022-12-08T05:09:31.840Z,952.3
2022-12-08T05:11:15.254Z,951.3
2022-12-08T05:12:58.636Z,948.5
2022-12-08T05:14:42.023Z,945.4
2022-12-08T05:16:25.427Z,944.8
2022-12-08T05:19:51.910Z,942.3
2022-12-08T05:21:35.329Z,940
2022-12-08T05:23:18.765Z,939.1
2022-12-08T05:25:02.070Z,939.3
2022-12-08T05:26:45.521Z,940.5
2022-12-08T05:28:28.873Z,942
2022-12-08T05:30:12.264Z,937.6
2022-12-08T05:31:55.672Z,934.2
2022-12-08T05:37:04.972Z,931.7
2022-12-08T05:38:48.286Z,930.6
2022-12-08T05:40:31.744Z,929.4
2022-12-08T05:42:15.102Z,932.5
2022-12-08T05:43:58.481Z,932.5
2022-12-08T05:45:41.896Z,935
2022-12-08T05:47:25.333Z,936
2022-12-08T05:49:08.694Z,936.3
2022-12-08T05:54:17.919Z,934.8
2022-12-08T05:56:01.321Z,935.4
2022-12-08T05:57:44.779Z,939.2
2022-12-08T05:59:28.108Z,939.3
2022-12-08T06:01:11.501Z,936.1
2022-12-08T06:02:54.904Z,937.8
2022-12-08T06:04:38.294Z,939.8
2022-12-08T06:06:21.707Z,938.2
2022-12-08T06:11:30.947Z,938.4
2022-12-08T06:13:14.317Z,937.6
2022-12-08T06:14:57.727Z,936.5
2022-12-08T06:16:41.124Z,934.3
2022-12-08T06:18:24.519Z,937.1
2022-12-08T06:20:07.963Z,936.5
2022-12-08T06:21:51.318Z,937
2022-12-08T06:23:34.740Z,936.1
2022-12-08T06:28:43.938Z,930.6
2022-12-08T06:30:27.372Z,926.8
2022-12-08T06:32:10.818Z,925.1
2022-12-08T06:33:54.148Z,923.8
2022-12-08T06:35:37.573Z,921.1
2022-12-08T06:37:20.921Z,921
2022-12-08T06:39:04.370Z,921.6
2022-12-08T06:40:47.706Z,923.5
2022-12-08T06:44:14.198Z,923.4
2022-12-08T06:45:57.586Z,922.4
2022-12-08T06:47:40.992Z,918.6
2022-12-08T06:49:24.413Z,917.8
2022-12-08T06:51:07.762Z,918.8
2022-12-08T06:52:51.214Z,919.7
2022-12-08T06:54:34.562Z,921
2022-12-08T06:56:17.959Z,919.6
2022-12-08T07:01:27.258Z,917.1
2022-12-08T07:03:10.646Z,913.8
2022-12-08T07:04:54.071Z,911.1
2022-12-08T07:06:37.395Z,911.4
2022-12-08T07:08:20.876Z,916.4
2022-12-08T07:10:04.254Z,913.3
2022-12-08T07:11:47.651Z,911.3
2022-12-08T07:13:31.020Z,906.2
2022-12-08T07:16:57.448Z,898.6
2022-12-08T07:18:40.861Z,898.4
2022-12-08T07:20:24.233Z,896.8
2022-12-08T07:22:07.707Z,894.4
2022-12-08T07:23:51.057Z,895.6
2022-12-08T07:25:34.437Z,900.5
2022-12-08T07:27:17.835Z,911.1
2022-12-08T07:29:01.250Z,909.2
2022-12-08T07:34:10.461Z,922.8
2022-12-08T07:35:53.854Z,926.2
2022-12-08T07:37:37.444Z,924.5
2022-12-08T07:39:20.744Z,924.8
2022-12-08T07:41:04.151Z,922.8
2022-12-08T07:42:47.442Z,920.7
2022-12-08T07:44:30.937Z,915.3
2022-12-08T07:46:14.220Z,911.3
2022-12-08T07:49:40.711Z,898.6
2022-12-08T07:51:24.093Z,894.1
2022-12-08T07:53:07.507Z,889.4
2022-12-08T07:54:50.911Z,604.4
2022-12-08T07:56:34.281Z,543
2022-12-08T07:58:17.683Z,537.1
2022-12-08T08:00:01.083Z,540.6
2022-12-08T08:01:44.482Z,541.4
2022-12-08T08:06:53.756Z,554.1
2022-12-08T08:08:37.111Z,556.4
2022-12-08T08:10:20.523Z,561.2
2022-12-08T08:12:03.911Z,563.4
2022-12-08T08:13:47.378Z,568.8
2022-12-08T08:15:30.900Z,574
2022-12-08T08:17:14.248Z,580.4
2022-12-08T08:18:57.604Z,586.3
2022-12-08T08:24:06.728Z,603.8
2022-12-08T08:25:50.325Z,608.1
2022-12-08T08:27:33.673Z,609.5
2022-12-08T08:29:17.037Z,610.3
2022-12-08T08:31:00.339Z,615.6
2022-12-08T08:32:43.892Z,621.1
2022-12-08T08:34:27.247Z,624.5
2022-12-08T08:36:10.859Z,628.7
2022-12-08T08:39:37.126Z,635.1
2022-12-08T08:41:20.527Z,637.2
2022-12-08T08:43:03.986Z,640.7
2022-12-08T08:44:47.316Z,644.1
2022-12-08T08:46:30.650Z,647
2022-12-08T08:48:13.964Z,647.3
2022-12-08T08:49:57.409Z,645.8
2022-12-08T08:51:40.882Z,644.2
2022-12-08T08:56:50.093Z,647.6
2022-12-08T08:58:33.402Z,647.4
2022-12-08T09:00:16.813Z,646.1
2022-12-08T09:02:00.302Z,648.1
2022-12-08T09:03:43.596Z,647
2022-12-08T09:05:26.988Z,648.1
2022-12-08T09:07:10.464Z,649.4
2022-12-08T09:08:53.940Z,651
2022-12-08T09:12:20.373Z,650
2022-12-08T09:14:03.662Z,652.4
2022-12-08T09:15:47.105Z,654.3
2022-12-08T09:17:30.508Z,652
2022-12-08T09:19:13.834Z,654.8
2022-12-08T09:20:57.312Z,655.4
2022-12-08T09:22:40.624Z,657.2
2022-12-08T09:24:24.177Z,658.4
2022-12-08T09:27:50.641Z,662.8
2022-12-08T09:29:33.986Z,664.2
2022-12-08T09:31:17.390Z,666.4
2022-12-08T09:33:00.814Z,669.6
2022-12-08T09:34:44.216Z,673.6
2022-12-08T09:36:27.508Z,677.2
2022-12-08T09:38:11.019Z,679
2022-12-08T09:39:54.300Z,678.6
2022-12-08T09:41:37.744Z,680.7
2022-12-08T09:45:04.352Z,686.4
2022-12-08T09:46:47.649Z,690.6
2022-12-08T09:48:30.950Z,691.3
2022-12-08T09:50:14.374Z,689.8
2022-12-08T09:51:57.710Z,691.8
2022-12-08T09:53:41.218Z,690.6
2022-12-08T09:55:24.521Z,690.8
2022-12-08T09:57:07.978Z,691.4
2022-12-08T10:00:34.468Z,694.1
2022-12-08T10:02:17.789Z,696.6
2022-12-08T10:04:01.210Z,699.6
2022-12-08T10:05:44.576Z,701.6
2022-12-08T10:07:27.971Z,700.4
2022-12-08T10:09:11.372Z,699.5
2022-12-08T10:10:54.761Z,701.5
2022-12-08T10:12:38.175Z,707.8
2022-12-08T10:16:04.629Z,722.2
2022-12-08T10:17:48.066Z,733.8
2022-12-08T10:19:31.418Z,745.5
2022-12-08T10:21:14.823Z,754.5
2022-12-08T10:22:58.220Z,755.3
2022-12-08T10:24:41.636Z,761
2022-12-08T10:26:25.043Z,764.1
2022-12-08T10:28:08.470Z,767.3
2022-12-08T10:31:34.879Z,770
2022-12-08T10:33:18.284Z,771.8
2022-12-08T10:35:01.662Z,773.2
2022-12-08T10:36:45.067Z,775.6
2022-12-08T10:38:28.470Z,778.4
2022-12-08T10:40:11.945Z,780.5
2022-12-08T10:41:55.281Z,776.8
2022-12-08T10:43:38.664Z,773.5
2022-12-08T10:47:05.230Z,761.8
2022-12-08T10:48:48.621Z,758.4
2022-12-08T10:50:31.909Z,757.3
2022-12-08T10:52:15.388Z,751.7
2022-12-08T10:53:58.707Z,749
2022-12-08T10:55:42.100Z,749.7
2022-12-08T10:57:25.485Z,748
2022-12-08T10:59:08.976Z,744.5
2022-12-08T11:02:35.372Z,740.2
2022-12-08T11:04:18.776Z,738.1
2022-12-08T11:06:02.210Z,735.4
2022-12-08T11:07:45.563Z,730.6
2022-12-08T11:09:28.972Z,727.1
2022-12-08T11:11:12.339Z,723.3
2022-12-08T11:12:55.812Z,720.8
2022-12-08T11:14:39.148Z,723.7
2022-12-08T11:16:22.529Z,723.5
2022-12-08T11:18:06.253Z,725.3
2022-12-08T11:19:49.693Z,722.5
2022-12-08T11:21:33.034Z,722
2022-12-08T11:23:16.424Z,721.7
2022-12-08T11:24:59.818Z,723.2
2022-12-08T11:26:43.225Z,721.2
2022-12-08T11:28:26.661Z,720
2022-12-08T11:30:10.049Z,719.7
2022-12-08T11:31:53.410Z,715.5
2022-12-08T11:35:19.909Z,715.6
2022-12-08T11:37:03.284Z,715
2022-12-08T11:38:46.678Z,715.2
2022-12-08T11:40:30.079Z,714.8
2022-12-08T11:42:13.471Z,713.4
2022-12-08T11:43:56.874Z,711.6
2022-12-08T11:45:40.255Z,709
2022-12-08T11:47:23.667Z,708
2022-12-08T11:50:50.134Z,707.8
2022-12-08T11:52:33.514Z,707
2022-12-08T11:54:16.915Z,703.8
2022-12-08T11:56:00.404Z,703
2022-12-08T11:57:43.709Z,706.2
2022-12-08T11:59:27.103Z,710.5
2022-12-08T12:01:10.504Z,717.2
2022-12-08T12:02:53.902Z,723.2
2022-12-08T12:08:03.164Z,745
2022-12-08T12:09:46.530Z,749.7
2022-12-08T12:11:29.953Z,747.4
2022-12-08T12:13:13.359Z,748.4
2022-12-08T12:14:56.772Z,750.5
2022-12-08T12:16:40.133Z,756.8
2022-12-08T12:18:23.554Z,769.6
2022-12-08T12:20:07.015Z,804.7
2022-12-08T12:23:33.384Z,845.5
2022-12-08T12:25:16.809Z,844.2
2022-12-08T12:27:00.200Z,849.4
2022-12-08T12:28:43.586Z,887
2022-12-08T12:30:27.056Z,890.6
2022-12-08T12:32:10.391Z,905.5
2022-12-08T12:33:53.799Z,920.1
2022-12-08T12:35:37.165Z,913.4
2022-12-08T12:39:03.636Z,911
2022-12-08T12:40:47.062Z,912.7
2022-12-08T12:42:30.455Z,922.4
2022-12-08T12:44:13.820Z,930.5
2022-12-08T12:45:57.236Z,929.5
2022-12-08T12:47:40.686Z,936.3
2022-12-08T12:49:24.078Z,931.7
2022-12-08T12:51:07.566Z,921.8
2022-12-08T12:54:33.902Z,913.5
2022-12-08T12:56:17.293Z,906.2
2022-12-08T12:58:00.815Z,896.8
2022-12-08T12:59:44.074Z,886.8
2022-12-08T13:01:27.502Z,879.5
2022-12-08T13:03:10.867Z,874.5
2022-12-08T13:04:54.281Z,870
2022-12-08T13:06:37.704Z,864.8
2022-12-08T13:11:46.911Z,853.8
2022-12-08T13:13:30.324Z,856.5
2022-12-08T13:15:13.699Z,862.2
2022-12-08T13:16:57.102Z,866.1
2022-12-08T13:18:40.508Z,866.4
2022-12-08T13:20:23.876Z,865
2022-12-08T13:22:07.343Z,866.7
2022-12-08T13:23:50.740Z,866.8
2022-12-08T13:27:17.144Z,862.3
2022-12-08T13:29:00.549Z,862.6
2022-12-08T13:30:43.949Z,863.2
2022-12-08T13:32:27.346Z,861.1
2022-12-08T13:34:10.744Z,861.7
2022-12-08T13:35:54.136Z,868.6
2022-12-08T13:37:37.668Z,899.1
2022-12-08T13:39:20.914Z,914.1
2022-12-08T13:42:47.380Z,907
2022-12-08T13:44:30.795Z,907.5
2022-12-08T13:46:14.346Z,908.4
2022-12-08T13:47:57.578Z,909.3
2022-12-08T13:49:40.985Z,908.4
2022-12-08T13:51:24.368Z,909.5
2022-12-08T13:53:07.773Z,908.3
2022-12-08T13:54:51.178Z,903.4
2022-12-08T13:58:17.702Z,903.3
2022-12-08T14:00:01.114Z,907.8
2022-12-08T14:01:44.444Z,907.4
2022-12-08T14:03:27.889Z,906.3
2022-12-08T14:05:11.297Z,908.8
2022-12-08T14:06:54.611Z,914.4
2022-12-08T14:08:38.064Z,918.8
2022-12-08T14:10:21.421Z,916.3
2022-12-08T14:13:47.949Z,912.3
2022-12-08T14:15:31.267Z,909.8
2022-12-08T14:17:14.683Z,909.3
2022-12-08T14:18:58.157Z,912
2022-12-08T14:20:41.530Z,912.2
2022-12-08T14:22:24.903Z,916.3
2022-12-08T14:24:08.288Z,931
2022-12-08T14:25:51.828Z,955.7
2022-12-08T14:31:00.895Z,960.4
2022-12-08T14:32:44.374Z,975.2
2022-12-08T14:34:27.689Z,994.3
2022-12-08T14:36:11.173Z,997
2022-12-08T14:37:54.491Z,1020.2
2022-12-08T14:39:37.871Z,1050.6
2022-12-08T14:41:21.267Z,1061.3
2022-12-08T14:43:04.665Z,1064.4
2022-12-08T14:46:31.153Z,1041
2022-12-08T14:48:14.547Z,1027.4
2022-12-08T14:49:57.984Z,1024.3
2022-12-08T14:51:41.455Z,1027.2
2022-12-08T14:53:24.744Z,1028.7
2022-12-08T14:55:08.142Z,1028.5
2022-12-08T14:56:51.566Z,1030.3
2022-12-08T14:58:34.911Z,1038.2
2022-12-08T15:02:01.391Z,1041.8
2022-12-08T15:03:44.849Z,1040.7
2022-12-08T15:05:28.202Z,1038.2
2022-12-08T15:07:11.596Z,1030.3
2022-12-08T15:08:54.997Z,1024.7
2022-12-08T15:10:38.387Z,1017.6
2022-12-08T15:12:21.779Z,1017.3
2022-12-08T15:14:05.179Z,1016.8
2022-12-08T15:17:31.640Z,1010.3
2022-12-08T15:19:15.053Z,1007.1
2022-12-08T15:20:58.564Z,1009.2
2022-12-08T15:22:41.841Z,1009.8
2022-12-08T15:24:25.253Z,1012.6
2022-12-08T15:26:08.631Z,1026
2022-12-08T15:27:52.100Z,1044.7
2022-12-08T15:29:35.483Z,1049.2
2022-12-08T15:33:01.902Z,1063.5
2022-12-08T15:34:45.357Z,1065.2
2022-12-08T15:36:28.802Z,1063.8
2022-12-08T15:38:12.160Z,1062.7
2022-12-08T15:39:55.490Z,1059.1
2022-12-08T15:41:38.886Z,1054.1
2022-12-08T15:43:22.306Z,1049.5
2022-12-08T15:45:05.729Z,1046.6
2022-12-08T15:48:32.196Z,1039.3
2022-12-08T15:50:15.601Z,1030.1
2022-12-08T15:51:58.939Z,1023.4
2022-12-08T15:53:42.357Z,1019.6
2022-12-08T15:55:25.748Z,1022.4
2022-12-08T15:57:09.128Z,1026.3
2022-12-08T15:58:52.578Z,1028.2
2022-12-08T16:00:36.041Z,1023.4
2022-12-08T16:05:45.164Z,999.1
2022-12-08T16:07:28.588Z,996.8
2022-12-08T16:09:12.030Z,997
2022-12-08T16:10:55.391Z,998.1
2022-12-08T16:12:38.807Z,994.6
2022-12-08T16:14:22.160Z,991.8
2022-12-08T16:16:05.626Z,987.2
2022-12-08T16:17:48.953Z,992.3
2022-12-08T16:21:15.556Z,989.7
2022-12-08T16:22:58.904Z,982.5
2022-12-08T16:24:42.263Z,976.5
2022-12-08T16:26:25.609Z,973.2
2022-12-08T16:28:09.015Z,971.3
2022-12-08T16:29:52.394Z,970.5
2022-12-08T16:31:35.851Z,967.4
2022-12-08T16:33:19.262Z,967.2
2022-12-08T16:36:45.751Z,960.4
2022-12-08T16:38:29.078Z,958.2
2022-12-08T16:40:12.453Z,957.3
2022-12-08T16:41:55.953Z,955.6
2022-12-08T16:43:39.422Z,953.2
2022-12-08T16:45:22.649Z,956.3
2022-12-08T16:47:06.051Z,956.2
2022-12-08T16:48:49.436Z,954.1
2022-12-08T16:52:15.990Z,951.8
2022-12-08T16:53:59.357Z,950.4
2022-12-08T16:55:42.717Z,946.8
2022-12-08T16:57:26.106Z,944.3
2022-12-08T16:59:09.555Z,941.4
2022-12-08T17:00:53.027Z,942
2022-12-08T17:02:36.400Z,945.4
2022-12-08T17:04:19.681Z,947.7
2022-12-08T17:07:46.215Z,958.6
2022-12-08T17:09:29.631Z,962.7
2022-12-08T17:11:12.937Z,965.5
2022-12-08T17:12:56.348Z,965
2022-12-08T17:14:39.845Z,964.3
2022-12-08T17:16:23.247Z,967.8
2022-12-08T17:18:06.571Z,974.8
2022-12-08T17:19:50.068Z,972.3
2022-12-08T17:23:16.486Z,968.5
2022-12-08T17:24:59.893Z,963.1
2022-12-08T17:26:43.251Z,964.2
2022-12-08T17:28:26.725Z,971.2
2022-12-08T17:30:10.010Z,975.7
2022-12-08T17:31:53.547Z,974.8
2022-12-08T17:33:36.783Z,972.2
2022-12-08T17:35:20.184Z,969.7
2022-12-08T17:40:29.515Z,958.4
2022-12-08T17:42:13.084Z,957.8
2022-12-08T17:43:56.256Z,960.3
2022-12-08T17:45:39.655Z,962
2022-12-08T17:47:23.077Z,963.5
2022-12-08T17:49:06.399Z,964.1
2022-12-08T17:50:49.780Z,965.2
2022-12-08T17:52:33.192Z,967.2
2022-12-08T17:55:59.723Z,971.2
2022-12-08T17:57:43.053Z,975.2
2022-12-08T17:59:26.472Z,978.5
2022-12-08T18:01:09.854Z,980.6
2022-12-08T18:02:53.237Z,985.8
2022-12-08T18:04:36.726Z,984.4
2022-12-08T18:06:20.038Z,984.2
2022-12-08T18:08:03.445Z,986.2
2022-12-08T18:13:12.679Z,983
2022-12-08T18:14:56.117Z,983.1
2022-12-08T18:16:39.469Z,981.8
2022-12-08T18:18:22.859Z,985.1
2022-12-08T18:20:06.290Z,990.3
2022-12-08T18:21:49.649Z,995.3
2022-12-08T18:23:33.092Z,996.1
2022-12-08T18:25:16.454Z,995.3
2022-12-08T18:30:25.687Z,999.4
2022-12-08T18:32:09.091Z,1000.1
2022-12-08T18:33:52.574Z,1001.3
2022-12-08T18:35:35.873Z,1001.6
2022-12-08T18:37:19.272Z,1003.5
2022-12-08T18:39:02.655Z,1004.7
2022-12-08T18:40:46.072Z,1006.3
2022-12-08T18:42:29.476Z,1005.7
2022-12-08T18:45:55.950Z,1006.7
2022-12-08T18:47:39.328Z,1008.3
2022-12-08T18:49:22.774Z,1006.1
2022-12-08T18:51:06.563Z,1007.3
2022-12-08T18:52:49.524Z,1010.6
2022-12-08T18:54:32.909Z,1014.2
2022-12-08T18:56:16.304Z,1018.7
2022-12-08T18:57:59.733Z,1026
2022-12-08T19:03:08.943Z,1038
2022-12-08T19:04:52.365Z,1037.1
2022-12-08T19:06:35.752Z,1039.3
2022-12-08T19:08:19.146Z,1042.6
2022-12-08T19:10:02.529Z,1046.1
2022-12-08T19:11:46.015Z,1049.8
2022-12-08T19:13:29.323Z,1054.6
2022-12-08T19:15:12.751Z,1057.1
2022-12-08T19:18:39.194Z,1059.1
2022-12-08T19:20:22.592Z,1062.4
2022-12-08T19:22:05.994Z,1064.4
2022-12-08T19:23:49.394Z,1066.8
2022-12-08T19:25:32.903Z,1065.8
2022-12-08T19:27:16.163Z,1064.6
2022-12-08T19:28:59.581Z,1064.3
2022-12-08T19:30:43.003Z,1065.6
2022-12-08T19:34:09.531Z,1065.8
2022-12-08T19:35:52.829Z,1067.7
2022-12-08T19:37:36.268Z,1068.7
2022-12-08T19:39:19.623Z,1067
2022-12-08T19:41:03.019Z,1068.1
2022-12-08T19:42:46.429Z,1069.2
2022-12-08T19:44:29.801Z,1068.3
2022-12-08T19:46:13.231Z,1068
2022-12-08T19:47:56.656Z,1068.7
2022-12-08T19:49:40.478Z,1067.9
2022-12-08T19:51:23.708Z,1069.3
2022-12-08T19:53:07.180Z,1074.4
2022-12-08T19:54:50.510Z,1076.6
2022-12-08T19:56:33.901Z,1081.5
2022-12-08T19:58:17.440Z,1080.1
2022-12-08T20:00:00.686Z,1076.3
2022-12-08T20:01:44.107Z,1074.2
2022-12-08T20:06:53.401Z,1071.9
2022-12-08T20:08:36.814Z,1071
2022-12-08T20:10:20.237Z,1073.4
2022-12-08T20:12:03.551Z,1072.8
2022-12-08T20:13:46.919Z,1074
2022-12-08T20:15:30.324Z,1071.3
2022-12-08T20:17:13.787Z,1071.8
2022-12-08T20:18:57.096Z,1073.4
2022-12-08T20:24:06.353Z,1068.3
2022-12-08T20:25:49.757Z,1066.7
2022-12-08T20:27:33.155Z,1062.8
2022-12-08T20:29:16.549Z,1060.6
2022-12-08T20:30:59.945Z,1061.2
2022-12-08T20:32:43.316Z,1060.4
2022-12-08T20:34:26.863Z,1060.4
2022-12-08T20:36:10.135Z,1058.1
2022-12-08T20:37:53.515Z,1054.3
2022-12-08T20:41:19.985Z,1056.5
2022-12-08T20:43:03.394Z,1054.7
2022-12-08T20:44:46.767Z,1053.5
2022-12-08T20:46:30.185Z,1053.2
2022-12-08T20:48:13.583Z,1052
2022-12-08T20:49:56.959Z,1051.7
2022-12-08T20:51:40.374Z,1051.5
2022-12-08T20:53:23.766Z,1053
2022-12-08T20:58:33.035Z,1046
2022-12-08T21:00:16.401Z,1044.1
2022-12-08T21:01:59.806Z,1043.2
2022-12-08T21:03:43.326Z,1045
2022-12-08T21:05:26.673Z,1046
2022-12-08T21:07:10.012Z,1045.1
2022-12-08T21:08:53.505Z,1048.7
2022-12-08T21:10:36.804Z,1056.7
2022-12-08T21:12:20.226Z,1055.2
2022-12-08T21:14:03.926Z,1057.9
2022-12-08T21:15:47.400Z,1062.1
2022-12-08T21:17:30.706Z,1059.6
2022-12-08T21:19:14.105Z,1055.7
2022-12-08T21:20:57.474Z,1054.3
2022-12-08T21:22:40.864Z,1054.7
2022-12-08T21:24:24.269Z,1053.3
2022-12-08T21:26:07.689Z,1055.4
2022-12-08T21:27:51.132Z,1053.3
2022-12-08T21:29:34.769Z,1052.5
2022-12-08T21:31:18.182Z,1050
2022-12-08T21:33:01.554Z,1047.6
2022-12-08T21:34:45.019Z,1046.3
2022-12-08T21:36:28.399Z,1045.6
2022-12-08T21:38:11.836Z,1045.4
2022-12-08T21:39:55.160Z,1045.5
2022-12-08T21:41:38.600Z,1045.3
2022-12-08T21:43:21.939Z,1044.8
2022-12-08T21:46:48.420Z,1038.7
2022-12-08T21:48:31.809Z,1038.1
2022-12-08T21:50:15.209Z,1038.3
2022-12-08T21:51:58.602Z,1036.6
2022-12-08T21:53:41.980Z,1035.3
2022-12-08T21:55:25.452Z,1034.6
2022-12-08T21:57:08.879Z,1036.4
2022-12-08T21:58:52.259Z,1037.3
2022-12-08T22:04:01.616Z,1035.4
2022-12-08T22:05:44.830Z,1032.8
2022-12-08T22:07:28.279Z,1032.4
2022-12-08T22:09:11.641Z,1030.7
2022-12-08T22:10:55.071Z,1032.8
2022-12-08T22:12:38.395Z,1033.3
2022-12-08T22:14:21.814Z,1031.7
2022-12-08T22:16:05.183Z,1027.7
2022-12-08T22:19:31.746Z,1022.3
2022-12-08T22:21:15.067Z,1024.5
2022-12-08T22:22:58.540Z,1024.1
2022-12-08T22:24:41.962Z,1023.4
2022-12-08T22:26:25.387Z,1020.8
2022-12-08T22:28:08.643Z,1017
2022-12-08T22:29:52.051Z,1017.2
2022-12-08T22:31:35.536Z,1017.1
2022-12-08T22:35:01.915Z,1014.9
2022-12-08T22:36:45.337Z,1016.4
2022-12-08T22:38:28.720Z,1019.5
2022-12-08T22:40:12.105Z,1020.2
2022-12-08T22:41:55.498Z,1020.5
2022-12-08T22:43:38.923Z,1018.5
2022-12-08T22:45:22.490Z,1014.6
2022-12-08T22:47:05.712Z,1015.4
2022-12-08T22:50:32.162Z,1018.1
2022-12-08T22:52:15.618Z,1016.1
2022-12-08T22:53:58.960Z,1015.3
2022-12-08T22:55:42.434Z,1012.2
2022-12-08T22:57:25.751Z,1014.4
2022-12-08T22:59:09.142Z,1013.2
2022-12-08T23:00:52.620Z,1012.1
2022-12-08T23:02:35.994Z,1010.2
2022-12-08T23:06:02.464Z,1009
2022-12-08T23:07:45.798Z,1004.5
2022-12-08T23:09:29.345Z,1001.3
2022-12-08T23:11:12.612Z,997.3
2022-12-08T23:12:55.988Z,993.2
2022-12-08T23:14:39.390Z,989.4
2022-12-08T23:16:22.791Z,989.1
2022-12-08T23:18:06.220Z,989.6
2022-12-08T23:23:15.432Z,993.9
2022-12-08T23:24:58.818Z,994
2022-12-08T23:26:42.219Z,996.1
2022-12-08T23:28:25.636Z,996
2022-12-08T23:30:08.987Z,996.1
2022-12-08T23:31:52.402Z,995.3
2022-12-08T23:33:35.805Z,992.8
2022-12-08T23:35:19.208Z,992.6
2022-12-08T23:40:28.484Z,992.1
2022-12-08T23:42:11.852Z,989.2
2022-12-08T23:43:55.232Z,987.1
2022-12-08T23:45:38.630Z,986.3
2022-12-08T23:47:22.034Z,988.2
2022-12-08T23:49:05.555Z,988.1
2022-12-08T23:50:48.857Z,986.3
2022-12-08T23:52:32.242Z,987.5
2022-12-08T23:57:41.454Z,984.8
2022-12-08T23:59:24.946Z,985.1
